.
WxDataArchive / Data Records for 2012-08-11
2012-08-10 August 2012 2012-08-12

Data Records for Saturday, 11 August 2012

Time	Temp	Chill	HIndex	Humid	Dewpt	 Wind 	HiWind	WindDir	Rain 	Barom 
-----	----	-----	------	-----	-----	------	------	-------	-----	----- 
00:00	59.6	59.6	59.6	88	56.0	1	3	292	0.00	29.824 
00:05	59.6	59.6	59.6	88	56.0	1	7	292	0.00	29.824 
00:10	59.6	59.6	59.6	88	56.0	1	3	315	0.00	29.824 
00:15	59.6	59.6	59.6	88	56.0	2	4	315	0.00	29.823 
00:20	59.6	59.6	59.6	87	55.7	1	5	292	0.00	29.823 
00:25	59.8	59.8	59.8	87	55.9	0	2	292	0.00	29.823 
00:30	59.8	59.8	59.8	87	55.9	1	3	292	0.00	29.826 
00:35	59.8	59.8	59.8	87	55.9	1	4	292	0.00	29.826 
00:40	59.9	59.9	59.9	86	55.7	2	6	292	0.00	29.826 
00:45	59.9	59.9	59.9	86	55.7	2	5	292	0.00	29.828 
00:50	59.9	59.9	59.9	86	55.7	2	4	292	0.00	29.828 
00:55	59.9	59.9	59.9	86	55.7	1	3	0	0.00	29.828 
01:00	59.9	59.9	59.9	86	55.7	1	4	270	0.00	29.828 
01:05	59.9	59.9	59.9	86	55.7	1	4	315	0.00	29.828 
01:10	59.9	59.9	59.9	86	55.7	1	3	315	0.00	29.828 
01:15	59.9	59.9	59.9	86	55.7	2	3	315	0.00	29.828 
01:20	59.9	59.9	59.9	86	55.7	1	4	248	0.00	29.828 
01:25	59.9	59.9	59.9	86	55.7	1	3	248	0.00	29.828 
01:30	59.9	59.9	59.9	86	55.7	2	5	270	0.00	29.828 
01:35	59.9	59.9	59.9	86	55.7	2	5	248	0.00	29.828 
01:40	59.9	59.9	59.9	86	55.7	1	3	292	0.00	29.828 
01:45	59.8	59.8	59.8	86	55.6	1	4	292	0.00	29.827 
01:50	59.8	59.8	59.8	86	55.6	1	5	270	0.00	29.827 
01:55	59.8	59.8	59.8	86	55.6	1	5	270	0.00	29.827 
02:00	59.8	59.8	59.8	86	55.6	2	5	270	0.00	29.827 
02:05	59.8	59.8	59.8	86	55.6	1	3	315	0.00	29.827 
02:10	59.8	59.8	59.8	86	55.6	2	4	315	0.00	29.827 
02:15	59.8	59.8	59.8	86	55.6	1	3	338	0.00	29.827 
02:20	59.8	59.8	59.8	86	55.6	1	4	270	0.00	29.827 
02:25	59.6	59.6	59.6	86	55.4	1	3	270	0.00	29.827 
02:30	59.6	59.6	59.6	86	55.4	1	4	270	0.00	29.827 
02:35	59.6	59.6	59.6	86	55.4	1	3	292	0.00	29.827 
02:40	59.6	59.6	59.6	85	55.1	2	6	292	0.00	29.827 
02:45	59.6	59.6	59.6	85	55.1	1	3	270	0.00	29.823 
02:50	59.6	59.6	59.6	85	55.1	2	4	270	0.00	29.823 
02:55	59.8	59.8	59.8	84	55.0	2	5	270	0.00	29.823 
03:00	59.9	59.9	59.9	84	55.0	1	4	292	0.00	29.821 
03:05	59.9	59.9	59.9	84	55.0	1	4	270	0.00	29.821 
03:10	59.9	59.9	59.9	84	55.0	1	3	270	0.00	29.821 
03:15	60.1	60.1	60.1	84	55.2	1	3	315	0.00	29.822 
03:20	60.1	60.1	60.1	84	55.2	1	4	270	0.00	29.822 
03:25	60.1	60.1	60.1	83	54.9	1	4	315	0.00	29.822 
03:30	60.1	60.1	60.1	83	54.9	1	4	292	0.00	29.822 
03:35	60.1	60.1	60.1	83	54.9	1	4	292	0.00	29.822 
03:40	60.2	60.2	60.2	83	55.0	2	4	315	0.00	29.822 
03:45	60.4	60.4	60.4	82	54.9	1	4	315	0.00	29.826 
03:50	60.4	60.4	60.4	82	54.9	1	3	292	0.00	29.826 
03:55	60.4	60.4	60.4	82	54.9	2	5	292	0.00	29.826 
04:00	60.4	60.4	60.4	82	54.9	2	4	292	0.00	29.826 
04:05	60.4	60.4	60.4	82	54.9	1	3	292	0.00	29.826 
04:10	60.4	60.4	60.4	82	54.9	2	6	248	0.00	29.826 
04:15	60.5	60.5	60.5	81	54.6	2	6	292	0.00	29.830 
04:20	60.5	60.5	60.5	81	54.6	2	4	292	0.00	29.830 
04:25	60.5	60.5	60.5	81	54.6	2	5	270	0.00	29.830 
04:30	60.7	60.7	60.7	81	54.8	2	5	270	0.00	29.829 
04:35	60.7	60.7	60.7	81	54.8	1	4	292	0.00	29.829 
04:40	60.9	60.9	60.9	80	54.7	1	3	315	0.00	29.829 
04:45	60.9	60.9	60.9	80	54.7	1	4	292	0.00	29.830 
04:50	60.9	60.9	60.9	80	54.7	2	4	292	0.00	29.830 
04:55	61.0	61.0	61.0	80	54.8	1	3	292	0.00	29.830 
05:00	61.0	61.0	61.0	80	54.8	2	5	270	0.00	29.825 
05:05	61.0	61.0	61.0	80	54.8	1	3	270	0.00	29.825 
05:10	61.0	61.0	61.0	80	54.8	1	4	270	0.00	29.825 
05:15	61.0	61.0	61.0	80	54.8	1	2	292	0.00	29.829 
05:20	61.0	61.0	61.0	80	54.8	1	3	292	0.00	29.829 
05:25	61.0	61.0	61.0	80	54.8	1	4	292	0.00	29.829 
05:30	61.0	61.0	61.0	80	54.8	1	4	292	0.00	29.829 
05:35	60.9	60.9	60.9	80	54.7	1	3	292	0.00	29.829 
05:40	60.7	60.7	60.7	81	54.8	1	4	292	0.00	29.829 
05:45	60.5	60.5	60.5	81	54.6	2	5	292	0.00	29.828 
05:50	60.4	60.4	60.4	81	54.5	1	4	270	0.00	29.828 
05:55	60.2	60.2	60.2	82	54.7	1	4	270	0.00	29.828 
06:00	60.1	60.1	60.1	83	54.9	1	3	270	0.00	29.828 
06:05	59.9	59.9	59.9	83	54.7	1	4	270	0.00	29.828 
06:10	59.9	59.9	59.9	83	54.7	1	3	270	0.00	29.828 
06:15	59.8	59.8	59.8	83	54.6	1	4	270	0.00	29.832 
06:20	59.8	59.8	59.8	84	55.0	1	3	270	0.00	29.832 
06:25	59.6	59.6	59.6	84	54.8	1	3	270	0.00	29.832 
06:30	59.6	59.6	59.6	84	54.8	1	3	270	0.00	29.835 
06:35	59.6	59.6	59.6	84	54.8	0	2	270	0.00	29.835 
06:40	59.5	59.5	59.5	84	54.7	0	2	270	0.00	29.835 
06:45	59.5	59.5	59.5	84	54.7	1	3	270	0.00	29.838 
06:50	59.5	59.5	59.5	85	55.0	1	3	270	0.00	29.838 
06:55	59.5	59.5	59.5	85	55.0	1	3	270	0.00	29.838 
07:00	59.5	59.5	59.5	85	55.0	1	3	315	0.00	29.841 
07:05	59.5	59.5	59.5	85	55.0	1	3	315	0.00	29.841 
07:10	59.6	59.6	59.6	85	55.1	1	4	315	0.00	29.841 
07:15	59.8	59.8	59.8	85	55.3	2	5	315	0.00	29.845 
07:20	59.9	59.9	59.9	85	55.4	2	4	292	0.00	29.845 
07:25	60.1	60.1	60.1	84	55.2	2	5	270	0.00	29.845 
07:30	60.2	60.2	60.2	84	55.3	2	5	270	0.00	29.849 
07:35	60.4	60.4	60.4	84	55.5	2	4	315	0.00	29.849 
07:40	60.4	60.4	60.4	84	55.5	1	4	292	0.00	29.849 
07:45	60.5	60.5	60.5	84	55.6	2	4	292	0.00	29.851 
07:50	60.9	60.9	60.9	84	56.0	2	4	270	0.00	29.851 
07:55	61.2	61.2	61.2	84	56.3	2	8	270	0.00	29.851 
08:00	61.5	61.5	61.5	84	56.6	2	9	270	0.00	29.852 
08:05	61.8	61.8	61.8	83	56.6	3	5	270	0.00	29.852 
08:10	62.1	62.1	62.1	82	56.5	3	6	270	0.00	29.852 
08:15	62.4	62.4	62.4	81	56.5	3	7	270	0.00	29.852 
08:20	62.7	62.7	62.7	81	56.8	2	5	270	0.00	29.852 
08:25	63.2	63.2	63.2	80	56.9	3	5	270	0.00	29.852 
08:30	63.5	63.5	63.5	79	56.9	3	6	270	0.00	29.855 
08:35	63.9	63.9	63.9	78	56.9	3	5	270	0.00	29.855 
08:40	64.2	64.2	64.2	78	57.2	2	4	292	0.00	29.855 
08:45	64.3	64.3	64.3	77	56.9	3	7	270	0.00	29.853 
08:50	64.7	64.7	64.7	76	57.0	3	5	270	0.00	29.853 
08:55	65.0	65.0	65.0	76	57.2	2	5	315	0.00	29.853 
09:00	65.3	65.3	65.3	74	56.8	3	7	315	0.00	29.851 
09:05	65.3	65.3	65.3	74	56.8	4	7	315	0.00	29.851 
09:10	65.6	65.6	65.6	74	57.1	3	6	315	0.00	29.851 
09:15	66.0	66.0	66.0	73	57.1	3	7	270	0.00	29.855 
09:20	66.0	66.0	66.0	73	57.1	3	5	270	0.00	29.855 
09:25	66.4	66.4	66.4	72	57.1	3	6	292	0.00	29.855 
09:30	66.4	66.4	66.4	71	56.7	3	6	270	0.00	29.858 
09:35	66.3	66.3	66.3	71	56.6	4	9	315	0.00	29.858 
09:40	66.3	66.3	66.3	72	57.0	4	7	292	0.00	29.858 
09:45	66.1	66.1	66.1	72	56.8	3	6	315	0.00	29.861 
09:50	66.0	66.0	66.0	72	56.7	3	9	315	0.00	29.861 
09:55	65.8	65.8	65.8	73	56.9	2	7	292	0.00	29.861 
10:00	65.6	65.6	65.6	73	56.7	2	8	292	0.00	29.869 
10:05	65.8	65.8	65.8	73	56.9	2	6	315	0.00	29.869 
10:10	66.3	66.3	66.3	73	57.4	2	5	315	0.00	29.869 
10:15	66.4	66.4	66.4	73	57.5	2	5	270	0.00	29.871 
10:20	66.1	66.1	66.1	72	56.8	3	6	270	0.00	29.871 
10:25	66.0	66.0	66.0	73	57.1	2	5	270	0.00	29.871 
10:30	66.1	66.1	66.1	73	57.2	2	5	292	0.00	29.874 
10:35	66.1	66.1	66.1	73	57.2	2	5	315	0.00	29.874 
10:40	66.1	66.1	66.1	73	57.2	3	5	270	0.00	29.874 
10:45	66.4	66.4	66.4	73	57.5	3	5	315	0.00	29.874 
10:50	66.8	66.8	66.8	71	57.1	3	7	292	0.00	29.874 
10:55	67.3	67.3	67.3	72	58.0	2	4	292	0.00	29.874 
11:00	67.9	67.9	67.9	70	57.7	3	5	292	0.00	29.873 
11:05	68.1	68.1	68.1	69	57.5	3	6	270	0.00	29.873 
11:10	68.3	68.3	68.3	69	57.7	3	5	315	0.00	29.873 
11:15	68.6	68.6	68.6	69	58.0	3	6	315	0.00	29.870 
11:20	68.9	68.9	68.9	67	57.5	3	7	315	0.00	29.870 
11:25	69.3	69.3	69.3	67	57.9	3	8	315	0.00	29.870 
11:30	69.3	69.3	69.3	66	57.4	2	5	292	0.00	29.867 
11:35	69.6	69.6	69.6	67	58.1	3	6	315	0.00	29.867 
11:40	69.9	69.9	69.9	65	57.6	3	6	315	0.00	29.867 
11:45	70.1	70.1	70.1	64	57.3	3	7	270	0.00	29.865 
11:50	70.1	70.1	70.1	64	57.3	2	5	315	0.00	29.865 
11:55	70.1	70.1	70.1	65	57.8	2	5	292	0.00	29.865 
12:00	70.6	70.6	70.6	65	58.2	3	7	270	0.00	29.869 
12:05	71.1	71.1	71.1	64	58.3	3	7	270	0.00	29.869 
12:10	70.9	70.9	70.9	61	56.8	3	9	315	0.00	29.869 
12:15	70.8	70.8	70.8	62	57.1	3	7	292	0.00	29.867 
12:20	70.8	70.8	70.8	63	57.6	3	6	315	0.00	29.867 
12:25	71.1	71.1	71.1	63	57.9	3	6	270	0.00	29.867 
12:30	71.3	71.3	71.3	60	56.7	3	6	292	0.00	29.867 
12:35	71.3	71.3	71.3	59	56.2	4	9	270	0.00	29.867 
12:40	71.6	71.6	71.6	61	57.4	3	7	292	0.00	29.867 
12:45	71.6	71.6	71.6	61	57.4	3	9	292	0.00	29.867 
12:50	71.5	71.5	71.5	61	57.3	2	6	315	0.00	29.867 
12:55	71.3	71.3	71.3	61	57.1	2	5	315	0.00	29.867 
13:00	70.8	70.8	70.8	61	56.7	3	7	270	0.00	29.876 
13:05	70.8	70.8	70.8	60	56.2	4	9	270	0.00	29.876 
13:10	70.9	70.9	70.9	60	56.3	3	6	292	0.00	29.876 
13:15	71.1	71.1	71.1	61	57.0	2	5	315	0.00	29.874 
13:20	71.8	71.8	71.8	62	58.1	2	4	338	0.00	29.874 
13:25	72.3	72.3	72.3	58	56.7	3	7	315	0.00	29.874 
13:30	72.1	72.1	72.1	59	57.0	3	6	270	0.00	29.874 
13:35	71.8	71.8	71.8	60	57.2	2	5	270	0.00	29.874 
13:40	71.5	71.5	71.5	60	56.9	4	9	292	0.00	29.874 
13:45	71.8	71.8	71.8	59	56.7	3	6	292	0.00	29.875 
13:50	71.6	71.6	71.6	60	57.0	3	8	315	0.00	29.875 
13:55	71.8	71.8	71.8	59	56.7	3	8	315	0.00	29.875 
14:00	72.5	72.5	72.5	57	56.4	3	6	292	0.00	29.876 
14:05	72.3	72.3	72.3	58	56.7	2	6	315	0.00	29.876 
14:10	72.3	72.3	72.3	58	56.7	2	5	292	0.00	29.876 
14:15	72.8	72.8	72.8	60	58.1	1	5	292	0.00	29.879 
14:20	73.2	73.2	73.2	58	57.5	2	5	270	0.00	29.879 
14:25	73.5	73.5	73.5	58	57.8	2	4	338	0.00	29.879 
14:30	73.5	73.5	73.5	58	57.8	1	5	292	0.00	29.879 
14:35	73.7	73.7	73.7	57	57.5	2	5	315	0.00	29.879 
14:40	74.2	74.2	74.2	56	57.5	3	5	315	0.00	29.879 
14:45	74.2	74.2	74.2	55	57.0	3	6	270	0.00	29.878 
14:50	73.7	73.7	73.7	56	57.0	2	5	270	0.00	29.878 
14:55	73.2	73.2	73.2	57	57.0	2	5	270	0.00	29.878 
15:00	73.2	73.2	73.2	58	57.5	3	7	270	0.00	29.883 
15:05	73.2	73.2	73.2	56	56.5	3	6	270	0.00	29.883 
15:10	73.2	73.2	73.2	57	57.0	2	5	270	0.00	29.883 
15:15	73.9	73.9	73.9	58	58.2	2	5	292	0.00	29.884 
15:20	74.6	74.6	74.6	54	56.8	3	5	270	0.00	29.884 
15:25	74.6	74.6	74.6	53	56.3	1	4	270	0.00	29.884 
15:30	74.4	74.4	74.4	54	56.7	3	6	270	0.00	29.884 
15:35	74.0	74.0	74.0	55	56.8	2	5	270	0.00	29.884 
15:40	74.0	74.0	74.0	55	56.8	2	5	292	0.00	29.884 
15:45	74.9	74.9	74.9	54	57.1	2	4	292	0.00	29.882 
15:50	75.1	75.1	77.7	51	55.7	1	4	292	0.00	29.882 
15:55	74.4	74.4	74.4	54	56.7	1	4	315	0.00	29.882 
16:00	74.6	74.6	74.6	54	56.8	1	5	315	0.00	29.882 
16:05	74.9	74.9	74.9	53	56.6	2	5	315	0.00	29.882 
16:10	75.3	75.3	77.7	52	56.4	2	5	270	0.00	29.882 
16:15	75.6	75.6	77.9	53	57.2	2	5	292	0.00	29.880 
16:20	76.0	76.0	78.1	50	56.0	3	5	315	0.00	29.880 
16:25	76.1	76.1	78.1	53	57.7	2	5	292	0.00	29.880 
16:30	76.1	76.1	78.1	50	56.1	3	5	270	0.00	29.879 
16:35	76.1	76.1	78.1	51	56.6	2	5	292	0.00	29.879 
16:40	76.0	76.0	78.1	51	56.5	2	5	270	0.00	29.879 
16:45	75.8	75.8	78.0	52	56.9	2	5	270	0.00	29.879 
16:50	76.0	76.0	78.1	54	58.1	1	6	315	0.00	29.879 
16:55	75.4	75.4	77.8	51	56.0	2	7	292	0.00	29.879 
17:00	75.3	75.3	77.7	51	55.9	2	5	338	0.00	29.880 
17:05	75.4	75.4	77.8	52	56.5	2	6	315	0.00	29.880 
17:10	75.6	75.6	77.9	50	55.6	3	5	315	0.00	29.880 
17:15	75.8	75.8	78.0	52	56.9	1	7	315	0.00	29.880 
17:20	76.1	76.1	78.1	51	56.6	3	6	270	0.00	29.880 
17:25	76.1	76.1	78.1	50	56.1	3	6	292	0.00	29.880 
17:30	76.0	76.0	78.1	50	56.0	3	5	270	0.00	29.882 
17:35	75.8	75.8	78.0	51	56.4	3	6	270	0.00	29.882 
17:40	76.0	76.0	78.1	51	56.5	2	5	292	0.00	29.882 
17:45	76.0	76.0	78.1	51	56.5	3	7	292	0.00	29.881 
17:50	75.6	75.6	77.9	51	56.2	4	7	270	0.00	29.881 
17:55	75.6	75.6	77.9	52	56.7	3	6	270	0.00	29.881 
18:00	75.6	75.6	77.9	50	55.6	3	5	315	0.00	29.882 
18:05	75.4	75.4	77.8	50	55.4	3	6	270	0.00	29.882 
18:10	75.6	75.6	77.9	51	56.2	3	6	315	0.00	29.882 
18:15	75.4	75.4	77.8	49	54.9	4	6	292	0.00	29.889 
18:20	75.4	75.4	77.8	49	54.9	3	6	270	0.00	29.889 
18:25	75.3	75.3	77.7	49	54.8	3	6	270	0.00	29.889 
18:30	75.1	75.1	77.7	50	55.2	3	5	315	0.00	29.895 
18:35	74.9	74.9	74.9	51	55.5	4	6	270	0.00	29.895 
18:40	74.9	74.9	74.9	51	55.5	2	5	270	0.00	29.895 
18:45	75.1	75.1	77.7	50	55.2	3	6	270	0.00	29.889 
18:50	74.9	74.9	74.9	50	55.0	2	5	248	0.00	29.889 
18:55	74.9	74.9	74.9	50	55.0	2	4	0	0.00	29.889 
19:00	74.7	74.7	74.7	50	54.8	3	7	270	0.00	29.889 
19:05	74.6	74.6	74.6	50	54.7	2	6	270	0.00	29.889 
19:10	74.4	74.4	74.4	50	54.5	2	5	315	0.00	29.889 
19:15	74.4	74.4	74.4	53	56.1	1	5	292	0.00	29.894 
19:20	74.2	74.2	74.2	51	54.9	2	4	248	0.00	29.894 
19:25	74.2	74.2	74.2	52	55.4	2	5	315	0.00	29.894 
19:30	74.0	74.0	74.0	54	56.3	1	3	292	0.00	29.895 
19:35	73.9	73.9	73.9	54	56.2	3	6	315	0.00	29.895 
19:40	73.5	73.5	73.5	54	55.8	3	5	270	0.00	29.895 
19:45	73.3	73.3	73.3	55	56.1	2	5	292	0.00	29.897 
19:50	73.0	73.0	73.0	55	55.9	2	5	292	0.00	29.897 
19:55	72.8	72.8	72.8	55	55.7	2	5	292	0.00	29.897 
20:00	72.7	72.7	72.7	56	56.1	2	5	248	0.00	29.899 
20:05	72.7	72.7	72.7	57	56.6	1	3	248	0.00	29.899 
20:10	72.3	72.3	72.3	58	56.7	2	4	315	0.00	29.899 
20:15	72.1	72.1	72.1	59	57.0	1	4	292	0.00	29.908 
20:20	72.0	72.0	72.0	59	56.9	1	3	292	0.00	29.908 
20:25	71.6	71.6	71.6	60	57.0	1	3	292	0.00	29.908 
20:30	71.3	71.3	71.3	61	57.1	1	4	292	0.00	29.910 
20:35	70.9	70.9	70.9	62	57.2	0	2	292	0.00	29.910 
20:40	70.6	70.6	70.6	63	57.4	0	3	292	0.00	29.910 
20:45	70.4	70.4	70.4	63	57.2	1	4	292	0.00	29.921 
20:50	70.1	70.1	70.1	64	57.3	0	3	292	0.00	29.921 
20:55	69.9	69.9	69.9	65	57.6	0	2	292	0.00	29.921 
21:00	69.8	69.8	69.8	65	57.5	0	2	292	0.00	29.925 
21:05	69.6	69.6	69.6	65	57.3	1	3	292	0.00	29.925 
21:10	69.4	69.4	69.4	66	57.5	1	3	292	0.00	29.925 
21:15	69.3	69.3	69.3	67	57.9	1	3	292	0.00	29.928 
21:20	69.1	69.1	69.1	67	57.7	1	3	292	0.00	29.928 
21:25	68.8	68.8	68.8	68	57.8	1	3	292	0.00	29.928 
21:30	68.6	68.6	68.6	69	58.0	0	1	292	0.00	29.936 
21:35	68.4	68.4	68.4	69	57.8	1	4	292	0.00	29.936 
21:40	68.3	68.3	68.3	69	57.7	0	2	292	0.00	29.936 
21:45	67.9	67.9	67.9	70	57.7	0	2	292	0.00	29.944 
21:50	67.8	67.8	67.8	71	58.0	1	3	292	0.00	29.944 
21:55	67.6	67.6	67.6	71	57.9	0	2	292	0.00	29.944 
22:00	67.4	67.4	67.4	72	58.1	0	1	292	0.00	29.951 
22:05	67.3	67.3	67.3	73	58.3	0	2	292	0.00	29.951 
22:10	67.1	67.1	67.1	73	58.1	0	3	292	0.00	29.951 
22:15	67.1	67.1	67.1	73	58.1	1	2	292	0.00	29.957 
22:20	67.1	67.1	67.1	74	58.5	1	3	292	0.00	29.957 
22:25	67.1	67.1	67.1	74	58.5	0	1	292	0.00	29.957 
22:30	66.9	66.9	66.9	74	58.3	0	2	292	0.00	29.958 
22:35	66.9	66.9	66.9	74	58.3	0	1	292	0.00	29.958 
22:40	66.9	66.9	66.9	75	58.7	0	2	292	0.00	29.958 
22:45	66.9	66.9	66.9	75	58.7	0	3	315	0.00	29.960 
22:50	66.9	66.9	66.9	75	58.7	1	3	292	0.00	29.960 
22:55	66.8	66.8	66.8	75	58.6	0	2	292	0.00	29.960 
23:00	66.8	66.8	66.8	76	59.0	1	2	292	0.00	29.962 
23:05	66.8	66.8	66.8	76	59.0	1	3	292	0.00	29.962 
23:10	66.6	66.6	66.6	76	58.8	1	4	292	0.00	29.962 
23:15	66.6	66.6	66.6	76	58.8	1	4	338	0.00	29.957 
23:20	66.4	66.4	66.4	77	59.0	1	2	338	0.00	29.957 
23:25	66.4	66.4	66.4	77	59.0	1	5	248	0.00	29.957 
23:30	66.3	66.3	66.3	77	58.9	1	3	270	0.00	29.958 
23:35	66.3	66.3	66.3	77	58.9	1	4	270	0.00	29.958 
23:40	66.1	66.1	66.1	77	58.7	1	3	270	0.00	29.958 
23:45	66.1	66.1	66.1	77	58.7	0	2	270	0.00	29.960 
23:50	66.0	66.0	66.0	77	58.6	0	2	270	0.00	29.960 
23:55	65.8	65.8	65.8	77	58.4	1	3	270	0.00	29.960 

CoCoRaHS
IN-AL-39
A2 Web Hosting
Creative Commons License
GoDaddy
search engine by freefind advanced

loaded 2018-12-19 10:17:17 • last modified 2010-11-18 10:43:29
Privacy PolicyDisclaimer
• wx.awcolley.com is powered by PmWiki v.2002016 •
• all content (unless otherwise noted) © 2018 A W Colley